Oasis of the Seas — C6XS7 — position and weather

sailwx.info

Track history (hours):
 
Tides and Currents Weather Stations Pressure Air Temp Water Temp Dewpoint Dewpoint Depression Visibility Wind Speed Wind Dir Waves Ship Positions

Oasis of the Seas

Last reported at 2014-Sep-23 00:23 UTC. Time now 2014-Sep-23 18:28 UTC.
Position N 41°17' E 002°52'.

Length 360 m; draft 9.3 m.

Type: Passenger vessel. MMSI: 311020600.

Date/timePositionNaut miles runAvg speedWind from/ knotsBaromVisibWave heightAir tempDewpointWater temp
2014-Sep-23 00:23N 41°17' E 002°52'5317.5
2014-Sep-22 21:22N 41°17' E 004°02'2117.2
2014-Sep-22 20:09N 41°17' E 004°30'8317.6
2014-Sep-22 15:27N 41°17' E 006°21'2118.1
2014-Sep-22 14:17N 41°17' E 006°49'1818.3
2014-Sep-22 13:19N 41°17' E 007°12'5318.2
2014-Sep-22 10:25N 41°18' E 008°23'26217.2
2014-Sep-21 19:12N 40°39' E 014°06'  
2014-Sep-18 22:22N 41°16' E 003°28'1713.1
2014-Sep-18 21:06N 41°16' E 003°06'712.7
2014-Sep-18 20:32N 41°16' E 002°57'1513.1
2014-Sep-18 19:25N 41°16' E 002°37'44 2.1
2014-Sep-17 22:20N 41°16' E 003°35'1316.8
2014-Sep-17 21:33N 41°17' E 003°53'3716.9
2014-Sep-17 19:22N 41°17' E 004°42'6716.9
2014-Sep-17 15:26N 41°17' E 006°11'36710.5
2014-Sep-16 04:30N 40°50' E 014°16'9 9.2
2014-Sep-16 03:33N 40°42' E 014°11'1615.5
2014-Sep-16 02:33N 40°37' E 013°52'1919.0
2014-Sep-16 01:32N 40°39' E 013°26'418 8.7
2014-Sep-14 01:26N 41°17' E 004°15'5413.9
2014-Sep-13 21:34N 41°17' E 003°04'1313.4
2014-Sep-13 20:33N 41°18' E 002°46'1312.6
2014-Sep-13 19:32N 41°17' E 002°29'1312.8
2014-Sep-13 18:33N 41°16' E 002°12'15 0.8
2014-Sep-13 00:33N 41°03' E 002°02'  
Track history (hours):
 
Tides and Currents Weather Stations Pressure Air Temp Water Temp Dewpoint Dewpoint Depression Visibility Wind Speed Wind Dir Waves Ship Positions

Oasis of the Seas

Last reported at 2014-Sep-23 00:23 UTC. Time now 2014-Sep-23 18:28 UTC.
Position N 41°17' E 002°52'.

Length 360 m; draft 9.3 m.

Type: Passenger vessel. MMSI: 311020600.

Date/timePositionNaut miles runAvg speedWind from/ knotsBaromVisibWave heightAir tempDewpointWater temp
2014-Sep-23 00:23N 41°17' E 002°52'5317.5
2014-Sep-22 21:22N 41°17' E 004°02'2117.2
2014-Sep-22 20:09N 41°17' E 004°30'8317.6
2014-Sep-22 15:27N 41°17' E 006°21'2118.1
2014-Sep-22 14:17N 41°17' E 006°49'1818.3
2014-Sep-22 13:19N 41°17' E 007°12'5318.2
2014-Sep-22 10:25N 41°18' E 008°23'26217.2
2014-Sep-21 19:12N 40°39' E 014°06'  
2014-Sep-18 22:22N 41°16' E 003°28'1713.1
2014-Sep-18 21:06N 41°16' E 003°06'712.7
2014-Sep-18 20:32N 41°16' E 002°57'1513.1
2014-Sep-18 19:25N 41°16' E 002°37'44 2.1
2014-Sep-17 22:20N 41°16' E 003°35'1316.8
2014-Sep-17 21:33N 41°17' E 003°53'3716.9
2014-Sep-17 19:22N 41°17' E 004°42'6716.9
2014-Sep-17 15:26N 41°17' E 006°11'36710.5
2014-Sep-16 04:30N 40°50' E 014°16'9 9.2
2014-Sep-16 03:33N 40°42' E 014°11'1615.5
2014-Sep-16 02:33N 40°37' E 013°52'1919.0
2014-Sep-16 01:32N 40°39' E 013°26'418 8.7
2014-Sep-14 01:26N 41°17' E 004°15'5413.9
2014-Sep-13 21:34N 41°17' E 003°04'1313.4
2014-Sep-13 20:33N 41°18' E 002°46'1312.6
2014-Sep-13 19:32N 41°17' E 002°29'1312.8
2014-Sep-13 18:33N 41°16' E 002°12'15 0.8
2014-Sep-13 00:33N 41°03' E 002°02'  

Dump ship's entire track history